createdAt,value
2022-10-02T00:00:23.509Z,100216.31
2022-10-02T00:01:27.852Z,100207.69
2022-10-02T00:02:32.185Z,100219.06
2022-10-02T00:03:36.395Z,100217.65
2022-10-02T00:04:40.799Z,100217.83
2022-10-02T00:05:45.026Z,100216.83
2022-10-02T00:06:49.239Z,100215.48
2022-10-02T00:07:53.470Z,100214.05
2022-10-02T00:08:57.691Z,100218.06
2022-10-02T00:10:01.960Z,100217.05
2022-10-02T00:11:06.175Z,100214.64
2022-10-02T00:12:10.414Z,100213.37
2022-10-02T00:13:14.595Z,100212.48
2022-10-02T00:14:18.814Z,100220.92
2022-10-02T00:15:23.040Z,100224.86
2022-10-02T00:16:27.362Z,100223.08
2022-10-02T00:17:31.843Z,100223.41
2022-10-02T00:18:36.124Z,100226.27
2022-10-02T00:19:40.331Z,100224.34
2022-10-02T00:20:44.551Z,100220.06
2022-10-02T00:21:48.774Z,100227.09
2022-10-02T00:22:53.040Z,100229.7
2022-10-02T00:23:57.260Z,100231.3
2022-10-02T00:25:01.458Z,100235.8
2022-10-02T00:26:05.658Z,100235.91
2022-10-02T00:27:09.885Z,100231.96
2022-10-02T00:28:14.270Z,100235.56
2022-10-02T00:29:18.675Z,100232.7
2022-10-02T00:30:22.872Z,100239.25
2022-10-02T00:31:27.202Z,100236.57
2022-10-02T00:32:31.584Z,100244.08
2022-10-02T00:33:35.826Z,100242.82
2022-10-02T00:34:40.121Z,100240.81
2022-10-02T00:35:44.342Z,100247.84
2022-10-02T00:36:48.530Z,100247.77
2022-10-02T00:37:52.768Z,100247.35
2022-10-02T00:38:56.979Z,100248.95
2022-10-02T00:40:01.194Z,100248.17
2022-10-02T00:41:05.418Z,100254.12
2022-10-02T00:42:09.669Z,100253.19
2022-10-02T00:43:13.903Z,100250.1
2022-10-02T00:44:18.113Z,100250.28
2022-10-02T00:45:22.329Z,100254.45
2022-10-02T00:46:26.577Z,100255.3
2022-10-02T00:47:30.772Z,100263.56
2022-10-02T00:48:35.002Z,100258.55
2022-10-02T00:49:39.256Z,100260.55
2022-10-02T00:50:43.480Z,100263.16
2022-10-02T00:51:47.668Z,100262.41
2022-10-02T00:52:51.873Z,100262.08
2022-10-02T00:53:56.090Z,100266.69
2022-10-02T00:55:00.387Z,100267.58
2022-10-02T00:56:04.635Z,100270.25
2022-10-02T00:57:08.848Z,100271.18
2022-10-02T00:58:13.082Z,100268.84
2022-10-02T00:59:17.383Z,100272.18
2022-10-02T01:00:21.741Z,100261.89
2022-10-02T01:01:26.053Z,100274.78
2022-10-02T01:02:30.550Z,100272.86
2022-10-02T01:03:34.988Z,100269.52
2022-10-02T01:04:39.171Z,100274.45
2022-10-02T01:05:43.439Z,100279.14
2022-10-02T01:06:47.641Z,100273.86
2022-10-02T01:07:51.854Z,100276.71
2022-10-02T01:08:56.061Z,100263.22
2022-10-02T01:10:00.270Z,100287.23
2022-10-02T01:11:04.577Z,100277.13
2022-10-02T01:12:08.800Z,100280.87
2022-10-02T01:13:13.040Z,100277.79
2022-10-02T01:14:17.248Z,100277.72
2022-10-02T01:15:24.523Z,100289.66
2022-10-02T01:16:28.975Z,100281.55
2022-10-02T01:17:33.386Z,100279.12
2022-10-02T01:18:37.586Z,100290.09
2022-10-02T01:19:41.800Z,100290.5
2022-10-02T01:20:46.014Z,100289.91
2022-10-02T01:21:50.265Z,100293.92
2022-10-02T01:22:54.481Z,100298.2
2022-10-02T01:23:58.686Z,100300.8
2022-10-02T01:25:02.928Z,100302.36
2022-10-02T01:26:07.163Z,100305.3
2022-10-02T01:27:11.413Z,100308.22
2022-10-02T01:28:15.754Z,100308.08
2022-10-02T01:29:20.113Z,100311.42
2022-10-02T01:30:24.331Z,100320.68
2022-10-02T01:31:28.655Z,100320.86
2022-10-02T01:32:32.947Z,100324.02
2022-10-02T01:33:37.173Z,100323.36
2022-10-02T01:34:41.387Z,100322.88
2022-10-02T01:35:45.610Z,100324.63
2022-10-02T01:36:49.913Z,100334.84
2022-10-02T01:37:54.138Z,100329.9
2022-10-02T01:38:58.366Z,100333.58
2022-10-02T01:40:02.605Z,100333.17
2022-10-02T01:41:06.867Z,100331.64
2022-10-02T01:42:11.111Z,100339.75
2022-10-02T01:43:15.309Z,100329.56
2022-10-02T01:44:19.586Z,100330.48
2022-10-02T01:45:23.872Z,100331.64
2022-10-02T01:46:28.151Z,100335.98
2022-10-02T01:47:32.676Z,100333.39
2022-10-02T01:48:36.880Z,100332.64
2022-10-02T01:49:41.133Z,100346.55
2022-10-02T01:50:45.352Z,100340.75
2022-10-02T01:51:49.562Z,100340.34
2022-10-02T01:52:53.805Z,100340.08
2022-10-02T01:53:58.020Z,100341.34
2022-10-02T01:55:02.250Z,100344.95
2022-10-02T01:56:09.470Z,100342.75
2022-10-02T01:57:13.705Z,100350.22
2022-10-02T01:58:17.921Z,100345.28
2022-10-02T01:59:22.100Z,100346.2
2022-10-02T02:00:26.336Z,100348.63
2022-10-02T02:01:30.694Z,100350.97
2022-10-02T02:02:35.252Z,100351.38
2022-10-02T02:03:39.645Z,100348.22
2022-10-02T02:04:43.900Z,100359.34
2022-10-02T02:05:48.113Z,100356.73
2022-10-02T02:06:52.319Z,100356.4
2022-10-02T02:07:56.530Z,100356.98
2022-10-02T02:09:03.152Z,100354.23
2022-10-02T02:10:07.401Z,100362.27
2022-10-02T02:11:11.638Z,100358.73
2022-10-02T02:12:15.842Z,100366.69
2022-10-02T02:13:20.062Z,100358.65
2022-10-02T02:14:24.305Z,100358.47
2022-10-02T02:15:28.848Z,100366.5
2022-10-02T02:16:33.366Z,100363.93
2022-10-02T02:17:38.366Z,100370.36
2022-10-02T02:18:42.654Z,100365.83
2022-10-02T02:19:46.849Z,100368.27
2022-10-02T02:20:51.091Z,100375.3
2022-10-02T02:21:55.320Z,100377.53
2022-10-02T02:22:59.539Z,100372.62
2022-10-02T02:24:03.754Z,100380.87
2022-10-02T02:25:07.949Z,100375.3
2022-10-02T02:26:12.158Z,100384.4
2022-10-02T02:27:16.400Z,100384.33
2022-10-02T02:28:20.758Z,100387.34
2022-10-02T02:29:25.147Z,100388.42
2022-10-02T02:30:29.375Z,100388.42
2022-10-02T02:31:33.729Z,100389.84
2022-10-02T02:32:38.002Z,100391.25
2022-10-02T02:33:42.207Z,100386.23
2022-10-02T02:34:46.431Z,100384.48
2022-10-02T02:35:50.667Z,100389.77
2022-10-02T02:36:54.950Z,100390.25
2022-10-02T02:37:59.257Z,100377.7
2022-10-02T02:39:03.756Z,100386.89
2022-10-02T02:40:07.963Z,100390.69
2022-10-02T02:41:12.178Z,100392.92
2022-10-02T02:42:20.084Z,100393.03
2022-10-02T02:43:29.442Z,100401.06
2022-10-02T02:44:33.679Z,100394.6
2022-10-02T02:45:37.994Z,100394.53
2022-10-02T02:46:42.263Z,100394.6
2022-10-02T02:47:48.755Z,100399.2
2022-10-02T02:48:52.985Z,100398.2
2022-10-02T02:49:57.226Z,100395.6
2022-10-02T02:51:01.433Z,100396.38
2022-10-02T02:52:05.639Z,100398.72
2022-10-02T02:53:09.914Z,100395.78
2022-10-02T02:54:14.177Z,100396.78
2022-10-02T02:55:18.363Z,100397.78
2022-10-02T02:56:22.601Z,100398.87
2022-10-02T02:57:26.815Z,100397.19
2022-10-02T02:58:31.067Z,100399.37
2022-10-02T02:59:35.294Z,100403.06
2022-10-02T03:00:39.689Z,100399.86
2022-10-02T03:01:44.152Z,100401.86
2022-10-02T03:02:50.739Z,100403.37
2022-10-02T03:03:54.967Z,100408.97
2022-10-02T03:04:59.207Z,100405.27
2022-10-02T03:06:03.482Z,100408.07
2022-10-02T03:07:07.718Z,100405.39
2022-10-02T03:08:12.020Z,100402.94
2022-10-02T03:09:16.208Z,100398.7
2022-10-02T03:10:20.435Z,100404.29
2022-10-02T03:11:24.671Z,100411.08
2022-10-02T03:12:28.866Z,100402.81
2022-10-02T03:13:33.071Z,100412.25
2022-10-02T03:14:37.305Z,100409.5
2022-10-02T03:15:41.642Z,100412.52
2022-10-02T03:16:45.947Z,100408.64
2022-10-02T03:17:50.144Z,100417.11
2022-10-02T03:18:54.406Z,100406.22
2022-10-02T03:19:58.624Z,100413.25
2022-10-02T03:21:02.821Z,100416.44
2022-10-02T03:22:07.039Z,100419.59
2022-10-02T03:23:11.244Z,100420.34
2022-10-02T03:24:15.501Z,100416
2022-10-02T03:25:19.735Z,100425.8
2022-10-02T03:26:23.938Z,100415.78
2022-10-02T03:27:34.792Z,100419.86
2022-10-02T03:28:57.016Z,100415
2022-10-02T03:30:01.521Z,100420.01
2022-10-02T03:31:05.901Z,100417.19
2022-10-02T03:32:12.500Z,100424.95
2022-10-02T03:33:16.696Z,100417.99
2022-10-02T03:34:20.941Z,100423.59
2022-10-02T03:35:25.171Z,100421.11
2022-10-02T03:36:29.354Z,100413.77
2022-10-02T03:37:33.554Z,100426.22
2022-10-02T03:38:37.756Z,100421.52
2022-10-02T03:39:42.030Z,100419.02
2022-10-02T03:40:46.244Z,100431.56
2022-10-02T03:41:50.456Z,100429.46
2022-10-02T03:42:54.670Z,100428.36
2022-10-02T03:43:58.932Z,100428.48
2022-10-02T03:45:03.166Z,100425.47
2022-10-02T03:46:07.586Z,100433.39
2022-10-02T03:47:11.849Z,100433.23
2022-10-02T03:48:16.058Z,100432.81
2022-10-02T03:49:20.299Z,100430.14
2022-10-02T03:50:24.513Z,100432.64
2022-10-02T03:51:28.762Z,100429.89
2022-10-02T03:52:33.918Z,100433.05
2022-10-02T03:53:38.124Z,100431.72
2022-10-02T03:54:42.340Z,100440.26
2022-10-02T03:55:46.542Z,100436.31
2022-10-02T03:56:50.781Z,100437.17
2022-10-02T03:57:54.993Z,100436.66
2022-10-02T03:58:59.184Z,100443.69
2022-10-02T04:00:03.418Z,100437.92
2022-10-02T04:01:07.648Z,100435.58
2022-10-02T04:02:11.890Z,100435.83
2022-10-02T04:03:16.202Z,100437.31
2022-10-02T04:04:20.529Z,100436.72
2022-10-02T04:05:24.774Z,100437.39
2022-10-02T04:06:28.994Z,100439.83
2022-10-02T04:07:33.230Z,100438.98
2022-10-02T04:08:37.437Z,100433.64
2022-10-02T04:09:41.657Z,100440.58
2022-10-02T04:10:45.909Z,100440.4
2022-10-02T04:11:50.107Z,100442.18
2022-10-02T04:12:54.332Z,100441.5
2022-10-02T04:13:58.550Z,100444.59
2022-10-02T04:15:02.755Z,100434.81
2022-10-02T04:16:07.198Z,100440.84
2022-10-02T04:17:11.554Z,100446.09
2022-10-02T04:18:15.816Z,100437.39
2022-10-02T04:19:20.019Z,100431.88
2022-10-02T04:20:24.261Z,100442.5
2022-10-02T04:21:28.455Z,100446.68
2022-10-02T04:22:32.697Z,100453.34
2022-10-02T04:23:36.917Z,100444.08
2022-10-02T04:24:41.121Z,100451.62
2022-10-02T04:25:45.359Z,100450.35
2022-10-02T04:26:49.557Z,100460.64
2022-10-02T04:27:53.865Z,100455.05
2022-10-02T04:28:58.199Z,100460.98
2022-10-02T04:30:02.415Z,100461.47
2022-10-02T04:31:06.791Z,100456.05
2022-10-02T04:32:11.242Z,100461.81
2022-10-02T04:33:15.464Z,100457.72
2022-10-02T04:34:19.687Z,100464.41
2022-10-02T04:35:23.922Z,100463.48
2022-10-02T04:36:28.141Z,100465.5
2022-10-02T04:37:32.362Z,100458.47
2022-10-02T04:38:36.594Z,100467.94
2022-10-02T04:39:46.711Z,100472.61
2022-10-02T04:40:51.036Z,100474.44
2022-10-02T04:41:55.234Z,100466.16
2022-10-02T04:42:59.732Z,100470.77
2022-10-02T04:44:03.951Z,100470.16
2022-10-02T04:45:08.189Z,100476.29
2022-10-02T04:46:12.566Z,100477.97
2022-10-02T04:47:16.942Z,100480.78
2022-10-02T04:48:21.149Z,100479.79
2022-10-02T04:49:25.362Z,100484.73
2022-10-02T04:50:29.559Z,100491
2022-10-02T04:51:33.790Z,100482.78
2022-10-02T04:52:38.032Z,100484.97
2022-10-02T04:53:42.268Z,100486.66
2022-10-02T04:54:46.504Z,100495.16
2022-10-02T04:55:50.708Z,100490.67
2022-10-02T04:56:54.920Z,100496.09
2022-10-02T04:57:59.160Z,100493.34
2022-10-02T04:59:03.417Z,100491.83
2022-10-02T05:00:07.635Z,100491.83
2022-10-02T05:01:12.052Z,100490.67
2022-10-02T05:02:16.565Z,100494.58
2022-10-02T05:03:21.275Z,100498.59
2022-10-02T05:04:25.501Z,100500.86
2022-10-02T05:05:29.755Z,100502.7
2022-10-02T05:06:34.457Z,100498.03
2022-10-02T05:07:39.143Z,100495.16
2022-10-02T05:08:43.386Z,100500.59
2022-10-02T05:09:47.638Z,100497.7
2022-10-02T05:10:51.886Z,100496.77
2022-10-02T05:11:56.113Z,100495.09
2022-10-02T05:13:00.350Z,100489.22
2022-10-02T05:14:04.546Z,100492.66
2022-10-02T05:15:08.790Z,100488.45
2022-10-02T05:16:13.127Z,100491.39
2022-10-02T05:17:17.491Z,100490.3
2022-10-02T05:18:21.724Z,100492.39
2022-10-02T05:19:25.939Z,100492.25
2022-10-02T05:20:30.177Z,100496.27
2022-10-02T05:21:34.390Z,100492.32
2022-10-02T05:22:38.621Z,100494.66
2022-10-02T05:23:42.820Z,100492.56
2022-10-02T05:24:47.075Z,100494.59
2022-10-02T05:25:51.315Z,100495.31
2022-10-02T05:26:55.515Z,100502.59
2022-10-02T05:27:59.926Z,100495.72
2022-10-02T05:29:04.254Z,100505.02
2022-10-02T05:30:08.546Z,100495.99
2022-10-02T05:31:12.800Z,100501.59
2022-10-02T05:32:17.108Z,100502.92
2022-10-02T05:33:21.343Z,100498.57
2022-10-02T05:34:25.553Z,100498.4
2022-10-02T05:35:29.744Z,100503.68
2022-10-02T05:36:34.672Z,100506.18
2022-10-02T05:37:39.431Z,100502.03
2022-10-02T05:38:43.676Z,100502.09
2022-10-02T05:39:47.887Z,100499.77
2022-10-02T05:40:52.108Z,100503.6
2022-10-02T05:41:56.362Z,100505.8
2022-10-02T05:43:00.555Z,100501.03
2022-10-02T05:44:04.816Z,100501.03
2022-10-02T05:45:09.009Z,100507.45
2022-10-02T05:46:13.273Z,100503.02
2022-10-02T05:47:17.578Z,100503.75
2022-10-02T05:48:21.815Z,100504.36
2022-10-02T05:49:26.101Z,100510.98
2022-10-02T05:50:30.317Z,100503.61
2022-10-02T05:51:34.532Z,100506.28
2022-10-02T05:52:38.771Z,100508.2
2022-10-02T05:53:42.993Z,100498.42
2022-10-02T05:54:47.219Z,100512.63
2022-10-02T05:55:51.449Z,100502.27
2022-10-02T05:56:55.847Z,100504.28
2022-10-02T05:58:00.079Z,100503.12
2022-10-02T05:59:04.297Z,100511.56
2022-10-02T06:00:08.506Z,100509.47
2022-10-02T06:01:12.887Z,100512.55
2022-10-02T06:02:17.218Z,100511.15
2022-10-02T06:03:21.534Z,100504.8
2022-10-02T06:04:25.734Z,100516.64
2022-10-02T06:05:29.939Z,100516.09
2022-10-02T06:06:34.488Z,100509.4
2022-10-02T06:07:39.191Z,100509.4
2022-10-02T06:08:43.678Z,100518.77
2022-10-02T06:09:47.895Z,100513.98
2022-10-02T06:10:52.362Z,100514.3
2022-10-02T06:11:56.567Z,100513.41
2022-10-02T06:13:00.786Z,100516.33
2022-10-02T06:14:05.027Z,100518.66
2022-10-02T06:15:09.260Z,100514.64
2022-10-02T06:16:13.608Z,100521.19
2022-10-02T06:17:17.943Z,100526.03
2022-10-02T06:18:22.181Z,100520.44
2022-10-02T06:19:26.448Z,100510.63
2022-10-02T06:20:30.654Z,100515.58
2022-10-02T06:21:34.866Z,100525.8
2022-10-02T06:22:40.090Z,100519.52
2022-10-02T06:23:44.309Z,100519.45
2022-10-02T06:24:48.512Z,100524.19
2022-10-02T06:25:52.728Z,100521.78
2022-10-02T06:26:56.946Z,100524.67
2022-10-02T06:28:01.349Z,100520.24
2022-10-02T06:29:05.746Z,100520.24
2022-10-02T06:30:09.966Z,100519.66
2022-10-02T06:31:14.375Z,100521.51
2022-10-02T06:32:18.775Z,100528.68
2022-10-02T06:33:22.987Z,100527.86
2022-10-02T06:34:27.194Z,100520.55
2022-10-02T06:35:31.434Z,100520.83
2022-10-02T06:36:36.551Z,100523.77
2022-10-02T06:37:41.532Z,100526.01
2022-10-02T06:38:45.729Z,100523.43
2022-10-02T06:39:49.943Z,100525.91
2022-10-02T06:40:54.193Z,100528.44
2022-10-02T06:41:58.409Z,100534.55
2022-10-02T06:43:02.651Z,100538.05
2022-10-02T06:44:06.853Z,100535.3
2022-10-02T06:45:11.060Z,100530.46
2022-10-02T06:46:15.507Z,100537.47
2022-10-02T06:47:19.949Z,100526.93
2022-10-02T06:48:24.238Z,100525.25
2022-10-02T06:49:28.463Z,100535.72
2022-10-02T06:50:32.718Z,100535.27
2022-10-02T06:51:36.982Z,100530.7
2022-10-02T06:52:41.218Z,100533.86
2022-10-02T06:53:45.492Z,100535.95
2022-10-02T06:54:49.737Z,100533.8
2022-10-02T06:55:53.951Z,100533.8
2022-10-02T06:56:58.184Z,100527.59
2022-10-02T06:58:02.398Z,100526.69
2022-10-02T06:59:06.621Z,100528.58
2022-10-02T07:00:10.963Z,100525.02
2022-10-02T07:01:15.326Z,100529.52
2022-10-02T07:02:19.855Z,100534.86
2022-10-02T07:03:24.206Z,100534.45
2022-10-02T07:04:28.410Z,100528.44
2022-10-02T07:05:32.626Z,100524.16
2022-10-02T07:06:37.441Z,100533.28
2022-10-02T07:07:42.461Z,100532.14
2022-10-02T07:08:46.687Z,100527.03
2022-10-02T07:09:50.983Z,100530.39
2022-10-02T07:10:55.189Z,100528.88
2022-10-02T07:11:59.436Z,100530.8
2022-10-02T07:13:03.672Z,100524.53
2022-10-02T07:14:07.882Z,100522.34
2022-10-02T07:15:12.094Z,100528.68
2022-10-02T07:16:16.442Z,100525.42
2022-10-02T07:17:23.339Z,100530.6
2022-10-02T07:18:27.597Z,100530.88
2022-10-02T07:19:31.829Z,100522.44
2022-10-02T07:20:36.058Z,100523.84
2022-10-02T07:21:40.301Z,100518.56
2022-10-02T07:22:46.633Z,100525.7
2022-10-02T07:23:50.893Z,100522.23
2022-10-02T07:24:55.164Z,100533.62
2022-10-02T07:25:59.364Z,100528.37
2022-10-02T07:27:03.581Z,100533.92
2022-10-02T07:28:07.889Z,100528.93
2022-10-02T07:29:12.370Z,100531.97
2022-10-02T07:30:16.602Z,100528.8
2022-10-02T07:31:20.908Z,100533.67
2022-10-02T07:32:25.350Z,100534.23
2022-10-02T07:33:31.152Z,100525.69
2022-10-02T07:34:35.411Z,100539.8
2022-10-02T07:35:39.665Z,100542.72
2022-10-02T07:36:43.852Z,100535.77
2022-10-02T07:37:48.078Z,100543.72
2022-10-02T07:38:52.291Z,100534.59
2022-10-02T07:39:56.510Z,100549.8
2022-10-02T07:41:01.281Z,100544.11
2022-10-02T07:42:05.479Z,100549.05
2022-10-02T07:43:09.674Z,100541.61
2022-10-02T07:44:13.879Z,100541.22
2022-10-02T07:45:18.096Z,100537.89
2022-10-02T07:46:22.315Z,100540.22
2022-10-02T07:47:26.515Z,100540.36
2022-10-02T07:48:30.757Z,100540.88
2022-10-02T07:49:34.976Z,100533.06
2022-10-02T07:50:39.220Z,100536.84
2022-10-02T07:51:43.433Z,100531.97
2022-10-02T07:52:47.666Z,100539.52
2022-10-02T07:53:51.878Z,100535.57
2022-10-02T07:54:56.095Z,100542.19
2022-10-02T07:56:00.292Z,100530.56
2022-10-02T07:57:10.603Z,100534.48
2022-10-02T07:58:14.812Z,100533.89
2022-10-02T07:59:20.043Z,100536.91
2022-10-02T08:00:24.285Z,100531.7
2022-10-02T08:01:28.538Z,100540.52
2022-10-02T08:02:32.894Z,100534.64
2022-10-02T08:03:37.390Z,100543.09
2022-10-02T08:04:41.707Z,100537.39
2022-10-02T08:05:45.896Z,100536.84
2022-10-02T08:06:50.145Z,100541.2
2022-10-02T08:07:54.392Z,100541.61
2022-10-02T08:08:58.636Z,100549.7
2022-10-02T08:10:02.868Z,100543.88
2022-10-02T08:11:07.376Z,100536.33
2022-10-02T08:12:11.641Z,100541.36
2022-10-02T08:13:15.859Z,100548.13
2022-10-02T08:14:20.145Z,100538.69
2022-10-02T08:15:24.369Z,100548.32
2022-10-02T08:16:28.685Z,100545.72
2022-10-02T08:17:32.996Z,100551.92
2022-10-02T08:18:37.224Z,100549.41
2022-10-02T08:19:41.490Z,100547.28
2022-10-02T08:20:45.690Z,100554.45
2022-10-02T08:21:49.926Z,100544.27
2022-10-02T08:22:54.127Z,100546.08
2022-10-02T08:23:58.334Z,100549.03
2022-10-02T08:25:02.566Z,100541.75
2022-10-02T08:26:06.800Z,100551.7
2022-10-02T08:27:11.103Z,100546.42
2022-10-02T08:28:15.449Z,100545.26
2022-10-02T08:29:19.816Z,100541.14
2022-10-02T08:30:24.041Z,100543.75
2022-10-02T08:31:28.412Z,100545.09
2022-10-02T08:32:35.887Z,100547.69
2022-10-02T08:33:40.160Z,100550.51
2022-10-02T08:34:44.582Z,100555.45
2022-10-02T08:35:48.774Z,100557.3
2022-10-02T08:36:52.996Z,100557.72
2022-10-02T08:37:57.205Z,100554.77
2022-10-02T08:39:01.412Z,100559.3
2022-10-02T08:40:05.641Z,100556.34
2022-10-02T08:41:09.874Z,100556.69
2022-10-02T08:42:14.088Z,100555.35
2022-10-02T08:43:18.423Z,100552.81
2022-10-02T08:44:22.899Z,100559.37
2022-10-02T08:45:27.292Z,100558.09
2022-10-02T08:46:31.553Z,100552.02
2022-10-02T08:47:35.801Z,100556.64
2022-10-02T08:48:40.026Z,100553.62
2022-10-02T08:49:44.246Z,100551.95
2022-10-02T08:50:48.529Z,100553.7
2022-10-02T08:51:52.710Z,100550.34
2022-10-02T08:52:56.898Z,100550.17
2022-10-02T08:54:01.155Z,100556.64
2022-10-02T08:55:05.375Z,100557.3
2022-10-02T08:56:09.630Z,100553.97
2022-10-02T08:57:13.838Z,100553.45
2022-10-02T08:58:18.064Z,100551.3
2022-10-02T08:59:22.346Z,100537.33
2022-10-02T09:00:26.569Z,100543.92
2022-10-02T09:01:30.776Z,100538.23
2022-10-02T09:02:35.071Z,100532.92
2022-10-02T09:03:39.384Z,100527.81
2022-10-02T09:04:43.568Z,100533.48
2022-10-02T09:05:47.798Z,100529.54
2022-10-02T09:16:52.947Z,100519.16
2022-10-02T09:17:57.475Z,100528.93
2022-10-02T09:19:01.809Z,100519.98
2022-10-02T09:20:06.124Z,100524.41
2022-10-02T09:21:12.879Z,100523.41
2022-10-02T09:22:17.149Z,100526.28
2022-10-02T09:23:21.611Z,100531.06
2022-10-02T09:24:25.883Z,100525.88
2022-10-02T09:25:30.099Z,100527.12
2022-10-02T09:26:34.916Z,100528.7
2022-10-02T09:27:39.704Z,100531.97
2022-10-02T09:28:44.152Z,100525.96
2022-10-02T09:29:48.427Z,100528.98
2022-10-02T09:30:52.688Z,100529.46
2022-10-02T09:31:57.074Z,100535.23
2022-10-02T09:33:01.399Z,100537.17
2022-10-02T09:34:05.569Z,100537.34
2022-10-02T09:35:09.887Z,100531.02
2022-10-02T09:36:14.224Z,100534.11
2022-10-02T09:37:18.694Z,100532.91
2022-10-02T09:38:22.976Z,100540.62
2022-10-02T09:39:27.559Z,100528.92
2022-10-02T09:40:36.987Z,100534.2
2022-10-02T09:41:41.563Z,100527.44
2022-10-02T09:42:45.783Z,100530.7
2022-10-02T09:43:50.109Z,100527.02
2022-10-02T09:44:56.396Z,100532.7
2022-10-02T09:46:05.495Z,100531.81
2022-10-02T09:47:09.958Z,100529.55
2022-10-02T09:48:14.316Z,100532.47
2022-10-02T09:49:18.668Z,100525.78
2022-10-02T09:50:22.882Z,100530.8
2022-10-02T09:51:27.173Z,100534.7
2022-10-02T09:52:31.709Z,100532.88
2022-10-02T09:53:35.975Z,100533.7
2022-10-02T09:54:40.161Z,100521.25
2022-10-02T09:55:44.380Z,100528.69
2022-10-02T09:56:48.590Z,100526.53
2022-10-02T09:57:52.788Z,100527.8
2022-10-02T09:58:57.026Z,100527.45
2022-10-02T10:00:01.239Z,100520.66
2022-10-02T10:01:05.680Z,100517.91
2022-10-02T10:02:10.160Z,100512.29
2022-10-02T10:03:14.448Z,100516.64
2022-10-02T10:04:18.869Z,100511.8
2022-10-02T10:05:23.111Z,100499.09
2022-10-02T10:06:27.357Z,100504.7
2022-10-02T10:07:31.574Z,100503.92
2022-10-02T10:08:35.781Z,100500.41
2022-10-02T10:09:40.061Z,100492.89
2022-10-02T10:10:44.274Z,100496.73
2022-10-02T10:11:48.475Z,100501.92
2022-10-02T10:12:52.704Z,100499.09
2022-10-02T10:13:56.917Z,100501.84
2022-10-02T10:15:01.167Z,100494.16
2022-10-02T10:16:05.488Z,100500.77
2022-10-02T10:17:09.818Z,100505.79
2022-10-02T10:18:14.047Z,100505.52
2022-10-02T10:19:18.348Z,100503.06
2022-10-02T10:20:22.602Z,100501.47
2022-10-02T10:21:31.188Z,100509.09
2022-10-02T10:22:35.396Z,100498.45
2022-10-02T10:23:39.632Z,100499.84
2022-10-02T10:24:43.839Z,100505.94
2022-10-02T10:25:48.097Z,100503.44
2022-10-02T10:26:52.316Z,100500
2022-10-02T10:27:56.676Z,100503.02
2022-10-02T10:29:00.940Z,100507.19
2022-10-02T10:30:06.202Z,100497.22
2022-10-02T10:31:10.718Z,100509.86
2022-10-02T10:32:14.982Z,100504.61
2022-10-02T10:33:19.192Z,100500.25
2022-10-02T10:34:23.410Z,100512.62
2022-10-02T10:35:27.632Z,100508.92
2022-10-02T10:36:31.851Z,100502.72
2022-10-02T10:37:36.057Z,100501.7
2022-10-02T10:38:40.261Z,100503.89
2022-10-02T10:39:44.467Z,100506.3
2022-10-02T10:40:48.825Z,100504.34
2022-10-02T10:41:53.040Z,100500.85
2022-10-02T10:43:08.885Z,100506.95
2022-10-02T10:44:17.509Z,100502.02
2022-10-02T10:45:21.727Z,100498.34
2022-10-02T10:46:26.299Z,100502.21
2022-10-02T10:47:30.522Z,100505.98
2022-10-02T10:48:34.766Z,100497.29
2022-10-02T10:49:38.976Z,100502.23
2022-10-02T10:50:43.188Z,100494.27
2022-10-02T10:51:47.429Z,100498.29
2022-10-02T10:52:51.641Z,100490.58
2022-10-02T10:54:02.276Z,100489.83
2022-10-02T10:55:06.560Z,100497.75
2022-10-02T10:56:10.765Z,100495.73
2022-10-02T10:57:15.000Z,100488.73
2022-10-02T10:58:19.228Z,100495.09
2022-10-02T10:59:26.492Z,100490.48
2022-10-02T11:00:30.746Z,100493.07
2022-10-02T11:01:35.835Z,100487.06
2022-10-02T11:02:40.919Z,100490.08
2022-10-02T11:03:45.288Z,100492.64
2022-10-02T11:04:49.490Z,100487.2
2022-10-02T11:05:53.749Z,100490.97
2022-10-02T11:06:57.966Z,100490.14
2022-10-02T11:08:02.188Z,100491.08
2022-10-02T11:09:06.413Z,100481.84
2022-10-02T11:10:10.703Z,100484.53
2022-10-02T11:11:14.999Z,100482.94
2022-10-02T11:12:19.220Z,100480.03
2022-10-02T11:13:23.570Z,100478.92
2022-10-02T11:14:27.773Z,100488.95
2022-10-02T11:15:32.005Z,100485.28
2022-10-02T11:16:36.511Z,100470.41
2022-10-02T11:17:40.833Z,100483.38
2022-10-02T11:18:45.083Z,100476.09
2022-10-02T11:19:49.295Z,100479.25
2022-10-02T11:20:53.524Z,100474
2022-10-02T11:21:57.804Z,100483.44
2022-10-02T11:23:02.024Z,100482.27
2022-10-02T11:24:06.227Z,100479.92
2022-10-02T11:25:14.155Z,100469.32
2022-10-02T11:26:18.361Z,100470.47
2022-10-02T11:27:22.604Z,100474.99
2022-10-02T11:28:26.892Z,100477.42
2022-10-02T11:29:31.211Z,100472.48
2022-10-02T11:30:41.778Z,100469.22
2022-10-02T11:31:46.217Z,100471.22
2022-10-02T11:32:50.586Z,100466.2
2022-10-02T11:33:54.805Z,100466.11
2022-10-02T11:34:59.083Z,100475.31
2022-10-02T11:36:03.288Z,100472.64
2022-10-02T11:37:07.509Z,100470.13
2022-10-02T11:38:11.728Z,100464.84
2022-10-02T11:39:15.924Z,100459.94
2022-10-02T11:40:20.175Z,100454.58
2022-10-02T11:41:24.378Z,100462.75
2022-10-02T11:42:28.623Z,100460.42
2022-10-02T11:43:32.894Z,100457.33
2022-10-02T11:44:37.087Z,100463.61
2022-10-02T11:45:41.426Z,100472.22
2022-10-02T11:46:45.758Z,100457.41
2022-10-02T11:47:49.969Z,100465.95
2022-10-02T11:48:54.201Z,100463.61
2022-10-02T11:49:58.452Z,100460.83
2022-10-02T11:51:02.663Z,100465.52
2022-10-02T11:52:06.890Z,100467.3
2022-10-02T11:53:11.113Z,100458.34
2022-10-02T11:54:15.306Z,100453.41
2022-10-02T11:55:19.560Z,100455.5
2022-10-02T11:56:23.802Z,100447.47
2022-10-02T11:57:28.089Z,100454.75
2022-10-02T11:58:32.321Z,100453.92
2022-10-02T11:59:36.510Z,100453.31
2022-10-02T12:00:40.752Z,100455.06
2022-10-02T12:01:44.945Z,100455.81
2022-10-02T12:02:49.377Z,100449.91
2022-10-02T12:03:53.776Z,100443.29
2022-10-02T12:04:58.016Z,100445.45
2022-10-02T12:06:02.245Z,100445.11
2022-10-02T12:07:06.529Z,100448.64
2022-10-02T12:08:10.745Z,100437.33
2022-10-02T12:09:14.991Z,100443.2
2022-10-02T12:10:19.204Z,100437.92
2022-10-02T12:11:23.409Z,100435.83
2022-10-02T12:12:29.019Z,100435.31
2022-10-02T12:13:33.245Z,100432.38
2022-10-02T12:14:37.470Z,100436.72
2022-10-02T12:15:41.719Z,100437.99
2022-10-02T12:16:46.055Z,100437.24
2022-10-02T12:17:50.411Z,100440.73
2022-10-02T12:18:54.622Z,100436.24
2022-10-02T12:19:58.830Z,100436.84
2022-10-02T12:21:03.029Z,100443.36
2022-10-02T12:22:07.234Z,100447.72
2022-10-02T12:23:11.469Z,100439.28
2022-10-02T12:24:15.721Z,100439.44
2022-10-02T12:25:19.982Z,100430.59
2022-10-02T12:26:24.197Z,100443.29
2022-10-02T12:27:28.384Z,100431.59